NORTHEAST SUFFOLK  -  Air Quality Alert Air Quality Alert        NORTHERN NASSAU  -  Air Quality Alert Air Quality Alert        NORTHERN QUEENS  -  Air Quality Alert Air Quality Alert        NORTHWEST SUFFOLK  -  Air Quality Alert Air Quality Alert        SOUTHEAST SUFFOLK  -  Air Quality Alert Air Quality Alert        SOUTHERN NASSAU  -  Air Quality Alert Air Quality Alert        SOUTHERN QUEENS  -  Air Quality Alert Air Quality Alert        SOUTHWEST SUFFOLK  -  Air Quality Alert Air Quality Alert      

Active alerts

Northern Queens
  Details for Northern Queens Air Quality Alert
Southern Queens
  Details for Southern Queens Air Quality Alert
Northern Nassau
  Details for Northern Nassau Air Quality Alert
Southern Nassau
  Details for Southern Nassau Air Quality Alert
Northwest Suffolk
  Details for Northwest Suffolk Air Quality Alert
Southwest Suffolk
  Details for Southwest Suffolk Air Quality Alert
Northeast Suffolk
  Details for Northeast Suffolk Air Quality Alert
Southeast Suffolk
  Details for Southeast Suffolk Air Quality Alert


WXM80 ListenWXM80 Stop

You find our weather info also at:

UK Metoffice

WeatherCloud

Weather Underground

Northeastern Weather Network

AWEKAS

Citizen Weather Observer Program (CWOP)

HAMweather, WeatherForYou, PWS Weather


Weather Underground History page Text

Daily Summary for November 29, 2017 Units:  Metric    English   Both
« Previous Day
Next Day »
Daily Weekly Monthly Yearly Custom
  High: Low: Average:
Temperature: 16.9 °C 5.9 °C 11.2 °C
Dew Point: 9.3 °C -1 °C 4.9 °C
Humidity: 93 % 37 % 68 %
Wind Speed: 17.9 km/h 0 km/h 8.2 km/h
Wind Gust: 29 km/h - -
Wind:- - SW
Pressure: 1026.6 hPa 1017.2 hPa -
Precipitation: 0 mm    
Historical Graphs
 
 
Tabular Data for November 29, 2017
Time Temperature Dew Point Pressure Wind Wind Speed Wind Gust Humidity Rainfall Rate (Hourly)
00:09 10.2 °C 8.8 °C 1021.9 hPa South 3.1 km/h 7.4 km/h 91 % 0 mm
00:14 10.2 °C 8.8 °C 1021.9 hPa South 9.7 km/h 16.7 km/h 91 % 0 mm
00:24 10.3 °C 8.9 °C 1021.6 hPa SSW 5.3 km/h 18.5 km/h 91 % 0 mm
00:34 10.4 °C 9.2 °C 1021.6 hPa WSW 4.2 km/h 7.4 km/h 92 % 0 mm
00:44 10.5 °C 9.1 °C 1021.2 hPa SW 9.5 km/h 18.5 km/h 91 % 0 mm
00:49 10.6 °C 9.2 °C 1021.2 hPa South 10 km/h 16.7 km/h 91 % 0 mm
00:54 10.6 °C 9.2 °C 1021.2 hPa SSE 10.5 km/h 16.7 km/h 91 % 0 mm
00:59 10.6 °C 9.2 °C 1021.2 hPa SSW 10.3 km/h 20.4 km/h 91 % 0 mm
01:04 10.7 °C 9.3 °C 1021.2 hPa SSW 4.8 km/h 9.3 km/h 91 % 0 mm
01:09 10.7 °C 9.3 °C 1021.2 hPa South 6.3 km/h 11.1 km/h 91 % 0 mm
01:14 10.7 °C 9.3 °C 1021.2 hPa South 6.6 km/h 11.1 km/h 91 % 0 mm
01:24 10.7 °C 9.1 °C 1021.2 hPa South 8.9 km/h 14.8 km/h 90 % 0 mm
01:34 10.6 °C 9.1 °C 1021.6 hPa SSW 3.1 km/h 9.3 km/h 90 % 0 mm
01:39 10.6 °C 9.1 °C 1021.6 hPa SW 6.6 km/h 11.1 km/h 90 % 0 mm
01:44 10.6 °C 9.1 °C 1021.6 hPa WSW 5.5 km/h 8 km/h 90 % 0 mm
01:49 10.6 °C 9.1 °C 1021.6 hPa West 2.9 km/h 11.1 km/h 90 % 0 mm
01:54 10.6 °C 9 °C 1021.2 hPa SW 3.1 km/h 7.4 km/h 90 % 0 mm
01:59 10.6 °C 9 °C 1021.2 hPa SW 2.3 km/h 5.6 km/h 90 % 0 mm
02:04 10.5 °C 8.9 °C 1021.2 hPa SW 5.5 km/h 7.4 km/h 90 % 0 mm
02:10 10.5 °C 8.9 °C 1021.2 hPa WSW 3.5 km/h 11.1 km/h 90 % 0 mm
02:20 10.4 °C 8.8 °C 1020.9 hPa WSW 2.4 km/h 5.6 km/h 90 % 0 mm
02:25 10.3 °C 8.6 °C 1021.2 hPa WSW 4 km/h 7.4 km/h 89 % 0 mm
02:30 10.3 °C 8.6 °C 1020.9 hPa West 1.6 km/h 5.6 km/h 89 % 0 mm
02:35 10.2 °C 8.5 °C 1020.9 hPa WSW 0.8 km/h 5.6 km/h 89 % 0 mm
02:45 10.1 °C 8.6 °C 1020.5 hPa WSW 0.3 km/h 1.9 km/h 90 % 0 mm
02:50 10.1 °C 8.3 °C 1020.5 hPa Calm     89 % 0 mm
02:55 10 °C 8.3 °C 1020.2 hPa SW 4.2 km/h 9.3 km/h 89 % 0 mm
03:00 9.9 °C 8.2 °C 1019.9 hPa SW 5.6 km/h 9.7 km/h 89 % 0 mm
03:05 9.8 °C 8.3 °C 1019.9 hPa WSW 3.1 km/h 5.6 km/h 90 % 0 mm
03:10 9.8 °C 8.2 °C 1019.9 hPa WSW 2.6 km/h 5.6 km/h 90 % 0 mm
03:15 9.8 °C 8.4 °C 1019.9 hPa WSW 3.2 km/h 7.4 km/h 91 % 0 mm
03:20 9.8 °C 8.4 °C 1019.9 hPa SSW 1.6 km/h 7.4 km/h 91 % 0 mm
03:25 9.8 °C 8.6 °C 1019.5 hPa SW 3.4 km/h 7.4 km/h 92 % 0 mm
03:30 9.8 °C 8.6 °C 1019.5 hPa WSW 6.9 km/h 13 km/h 92 % 0 mm
03:35 9.8 °C 8.6 °C 1019.5 hPa WSW 9.8 km/h 16.7 km/h 92 % 0 mm
03:40 9.8 °C 8.6 °C 1019.5 hPa WSW 6.8 km/h 16.1 km/h 92 % 0 mm
03:45 9.9 °C 8.9 °C 1019.5 hPa WSW 6.1 km/h 13 km/h 93 % 0 mm
03:50 9.9 °C 8.9 °C 1019.5 hPa SSW 6.8 km/h 8 km/h 93 % 0 mm
03:55 10 °C 8.9 °C 1019.5 hPa SSW 7.2 km/h 18.5 km/h 93 % 0 mm
04:00 10.1 °C 9.1 °C 1019.2 hPa South 10 km/h 16.7 km/h 93 % 0 mm
04:05 10.2 °C 9.1 °C 1019.2 hPa SSW 6.8 km/h 14.8 km/h 93 % 0 mm
04:15 10.3 °C 9.2 °C 1018.8 hPa WSW 11.1 km/h 18.5 km/h 93 % 0 mm
04:21 10.3 °C 9.2 °C 1018.8 hPa SW 11.3 km/h 20.9 km/h 93 % 0 mm
04:26 10.3 °C 9.3 °C 1018.8 hPa SW 9.7 km/h 20.9 km/h 93 % 0 mm
04:31 10.3 °C 9.1 °C 1018.8 hPa SW 8 km/h 16.1 km/h 92 % 0 mm
04:36 10.3 °C 9.1 °C 1018.8 hPa SSW 12.9 km/h 22.5 km/h 92 % 0 mm
04:39 10.3 °C 9.1 °C 1018.5 hPa SSW 8.4 km/h 17.7 km/h 92 % 0 mm
04:44 10.3 °C 9.1 °C 1018.5 hPa SSW 6.8 km/h 14.8 km/h 92 % 0 mm
04:54 10.3 °C 9.1 °C 1018.5 hPa SSW 9.5 km/h 16.7 km/h 92 % 0 mm
05:04 10.3 °C 9.1 °C 1018.2 hPa South 6 km/h 16.7 km/h 92 % 0 mm
05:09 10.2 °C 9 °C 1018.2 hPa SW 6.6 km/h 18.5 km/h 92 % 0 mm
05:14 10.2 °C 8.9 °C 1018.2 hPa SW 13.5 km/h 13.5 km/h 92 % 0 mm
05:19 10.2 °C 8.9 °C 1018.2 hPa SSW 10.9 km/h 20.9 km/h 92 % 0 mm
05:30 10.1 °C 8.9 °C 1017.8 hPa SSW 10.1 km/h 18.5 km/h 92 % 0 mm
05:35 10.1 °C 8.7 °C 1018.2 hPa SW 7.7 km/h 22.2 km/h 91 % 0 mm
05:45 10.1 °C 8.7 °C 1017.8 hPa SSW 8.2 km/h 14.8 km/h 91 % 0 mm
05:55 10 °C 8.4 °C 1017.8 hPa SSW 8.4 km/h 18.5 km/h 90 % 0 mm
06:00 9.9 °C 8.4 °C 1017.8 hPa SW 12.7 km/h 18.5 km/h 90 % 0 mm
06:05 9.9 °C 8.4 °C 1017.8 hPa SSW 13.2 km/h 20.4 km/h 90 % 0 mm
06:15 9.8 °C 8.3 °C 1017.8 hPa SSW 4.5 km/h 9.3 km/h 90 % 0 mm
06:20 9.8 °C 8.2 °C 1017.8 hPa South 10.3 km/h 20.4 km/h 90 % 0 mm
06:25 9.7 °C 8.2 °C 1017.8 hPa SSW 8.7 km/h 13 km/h 90 % 0 mm
06:30 9.7 °C 7.9 °C 1017.8 hPa SW 8.9 km/h 11.3 km/h 89 % 0 mm
06:35 9.7 °C 7.9 °C 1017.8 hPa SSW 9.5 km/h 14.8 km/h 89 % 0 mm
06:45 9.6 °C 7.9 °C 1018.2 hPa SSW 9.2 km/h 11.1 km/h 89 % 0 mm
06:51 9.6 °C 7.8 °C 1018.2 hPa SW 8 km/h 19.3 km/h 89 % 0 mm
06:56 9.5 °C 7.8 °C 1018.5 hPa SW 4.8 km/h 12.9 km/h 89 % 0 mm
07:06 9.5 °C 7.6 °C 1018.5 hPa SW 4 km/h 9.3 km/h 88 % 0 mm
07:26 9.4 °C 7.4 °C 1017.8 hPa SSW 9.8 km/h 13 km/h 87 % 0 mm
07:31 9.5 °C 7.4 °C 1018.2 hPa South 10.9 km/h 18.5 km/h 87 % 0 mm
07:41 9.6 °C 7.3 °C 1017.8 hPa SW 5.6 km/h 11.1 km/h 86 % 0 mm
07:46 9.7 °C 7.4 °C 1017.8 hPa SW 7.9 km/h 13 km/h 86 % 0 mm
07:56 9.8 °C 7.4 °C 1018.2 hPa SW 10.5 km/h 18.5 km/h 85 % 0 mm
08:01 9.8 °C 7.3 °C 1017.8 hPa SSW 9.7 km/h 16.7 km/h 84 % 0 mm
08:02 9.9 °C 7.3 °C 1017.8 hPa SW 11.4 km/h 16.1 km/h 84 % 0 mm
08:17 10.2 °C 7.1 °C 1018.2 hPa SSW 8.5 km/h 14.8 km/h 81 % 0 mm
08:22 10.2 °C 6.9 °C 1018.2 hPa SSW 10.5 km/h 18.5 km/h 80 % 0 mm
08:32 10.4 °C 6.9 °C 1017.8 hPa WSW 8.2 km/h 11.1 km/h 79 % 0 mm
08:42 10.7 °C 6.8 °C 1018.2 hPa SSW 10.1 km/h 22.2 km/h 77 % 0 mm
08:47 10.8 °C 6.9 °C 1018.2 hPa SW 9.8 km/h 22.2 km/h 77 % 0 mm
08:52 11.1 °C 7 °C 1018.2 hPa SW 10.5 km/h 11.3 km/h 76 % 0 mm
08:57 11.3 °C 7 °C 1018.2 hPa WSW 12.6 km/h 20.4 km/h 75 % 0 mm
09:02 11.5 °C 7 °C 1018.2 hPa SSW 3.7 km/h 11.1 km/h 74 % 0 mm
09:12 11.7 °C 6.6 °C 1018.2 hPa WSW 17.9 km/h 27.8 km/h 71 % 0 mm
09:18 11.8 °C 6.6 °C 1018.2 hPa SW 5.3 km/h 18.5 km/h 70 % 0 mm
09:23 11.9 °C 6.6 °C 1018.2 hPa WSW 7.1 km/h 18.5 km/h 70 % 0 mm
09:28 11.9 °C 6.7 °C 1018.2 hPa WSW 4.7 km/h 16.7 km/h 70 % 0 mm
09:33 11.9 °C 6.4 °C 1018.2 hPa SSW 4.8 km/h 9.7 km/h 69 % 0 mm
09:38 11.9 °C 6.4 °C 1018.2 hPa SSW 7.9 km/h 16.7 km/h 69 % 0 mm
09:43 12 °C 6.3 °C 1018.2 hPa SW 8 km/h 11.3 km/h 68 % 0 mm
09:48 12.2 °C 6 °C 1017.8 hPa SW 9 km/h 13 km/h 66 % 0 mm
09:53 12.3 °C 5.9 °C 1018.2 hPa WSW 11.3 km/h 25.9 km/h 65 % 0 mm
09:58 12.6 °C 5.7 °C 1018.2 hPa West 13.5 km/h 18.5 km/h 63 % 0 mm
10:03 12.8 °C 5.7 °C 1018.2 hPa WSW 9 km/h 24.1 km/h 62 % 0 mm
10:08 13 °C 5.4 °C 1018.2 hPa SW 14.3 km/h 18.5 km/h 60 % 0 mm
10:13 13.1 °C 5.4 °C 1018.2 hPa WSW 7.7 km/h 18.5 km/h 60 % 0 mm
10:19 13.1 °C 5.5 °C 1017.8 hPa WSW 15.8 km/h 22.5 km/h 60 % 0 mm
10:24 13.2 °C 5.4 °C 1018.2 hPa West 15.8 km/h 22.2 km/h 59 % 0 mm
10:29 13.3 °C 5.5 °C 1018.2 hPa WNW 6.1 km/h 20.4 km/h 59 % 0 mm
10:34 13.4 °C 5.6 °C 1017.8 hPa SW 11.6 km/h 20.4 km/h 59 % 0 mm
10:39 13.5 °C 5.6 °C 1017.8 hPa SW 13.4 km/h 22.2 km/h 59 % 0 mm
10:54 13.7 °C 5.6 °C 1017.8 hPa SW 13.2 km/h 20.4 km/h 58 % 0 mm
10:59 13.7 °C 5.3 °C 1017.8 hPa WSW 6.8 km/h 20.9 km/h 57 % 0 mm
11:04 13.7 °C 5.3 °C 1017.8 hPa West 3.2 km/h 13 km/h 57 % 0 mm
11:09 13.7 °C 5.3 °C 1017.8 hPa SW 8 km/h 18.5 km/h 57 % 0 mm
11:19 13.8 °C 5.4 °C 1017.8 hPa WSW 3.4 km/h 9.3 km/h 57 % 0 mm
11:24 13.8 °C 5.4 °C 1017.5 hPa SW 8.9 km/h 18.5 km/h 57 % 0 mm
11:29 13.8 °C 5.4 °C 1017.5 hPa West 5.6 km/h 13 km/h 57 % 0 mm
11:39 13.9 °C 5.3 °C 1017.5 hPa SW 5.6 km/h 13 km/h 56 % 0 mm
11:49 14.1 °C 5.2 °C 1017.5 hPa SW 8.5 km/h 22.2 km/h 55 % 0 mm
11:54 14.2 °C 5.2 °C 1017.5 hPa WSW 9.8 km/h 17.7 km/h 55 % 0 mm
12:15 14.7 °C 5.2 °C 1017.5 hPa WSW 6.9 km/h 13 km/h 53 % 0 mm
12:20 14.9 °C 5.4 °C 1017.5 hPa WSW 5.3 km/h 14.8 km/h 53 % 0 mm
12:25 15.1 °C 5.1 °C 1017.5 hPa WNW 9 km/h 11.3 km/h 51 % 0 mm
12:30 15.3 °C 5.8 °C 1017.5 hPa WNW 3.9 km/h 7.4 km/h 53 % 0 mm
12:41 15.7 °C 4.7 °C 1017.5 hPa West 9.8 km/h 16.7 km/h 48 % 0 mm
12:46 15.8 °C 4.8 °C 1017.5 hPa WNW 5.6 km/h 9.3 km/h 48 % 0 mm
12:51 15.9 °C 4.9 °C 1017.5 hPa WNW 6.1 km/h 13 km/h 48 % 0 mm
12:56 16.1 °C 4.7 °C 1017.5 hPa WNW 7.1 km/h 20.4 km/h 47 % 0 mm
13:11 16.3 °C 5.3 °C 1017.2 hPa WSW 4 km/h 7.4 km/h 48 % 0 mm
13:16 16.4 °C 4.4 °C 1017.2 hPa SSW 4.8 km/h 8 km/h 45 % 0 mm
13:21 16.6 °C 4.9 °C 1017.2 hPa West 6.1 km/h 12.9 km/h 46 % 0 mm
13:26 16.6 °C 4.9 °C 1017.2 hPa West 4.2 km/h 9.3 km/h 46 % 0 mm
13:31 16.7 °C 5 °C 1017.2 hPa WSW 7.1 km/h 18.5 km/h 46 % 0 mm
13:42 16.8 °C 4.8 °C 1017.2 hPa SW 6.1 km/h 13 km/h 45 % 0 mm
13:47 16.9 °C 4.2 °C 1017.2 hPa West 10.5 km/h 14.5 km/h 43 % 0 mm
13:52 16.9 °C 3.9 °C 1017.5 hPa WNW 9.7 km/h 18.5 km/h 42 % 0 mm
14:02 16.9 °C 4.6 °C 1017.5 hPa WNW 8.9 km/h 20.4 km/h 44 % 0 mm
14:07 16.8 °C 4.4 °C 1017.5 hPa NW 12.4 km/h 22.2 km/h 44 % 0 mm
14:12 16.6 °C 3.9 °C 1017.8 hPa NW 7.6 km/h 18.5 km/h 43 % 0 mm
14:17 16.4 °C 3.5 °C 1017.8 hPa NW 12.1 km/h 18.5 km/h 42 % 0 mm
14:22 16.3 °C 3.4 °C 1017.8 hPa West 8.9 km/h 18.5 km/h 42 % 0 mm
14:32 16.2 °C 3.2 °C 1017.8 hPa NW 12.1 km/h 18.5 km/h 42 % 0 mm
14:37 16.1 °C 2.8 °C 1017.8 hPa WNW 10.3 km/h 18.5 km/h 41 % 0 mm
14:42 16.1 °C 3.8 °C 1017.8 hPa NW 4.8 km/h 13 km/h 44 % 0 mm
14:47 15.9 °C 3.7 °C 1018.2 hPa NW 8 km/h 16.7 km/h 44 % 0 mm
14:57 15.6 °C 3.4 °C 1018.2 hPa WSW 9.8 km/h 24.1 km/h 44 % 0 mm
15:02 15.4 °C 2.6 °C 1018.5 hPa North 9.2 km/h 18.5 km/h 42 % 0 mm
15:12 15.2 °C 0.6 °C 1018.8 hPa West 11.9 km/h 20.4 km/h 37 % 0 mm
15:16 15.2 °C 1 °C 1018.8 hPa WNW 11.3 km/h 22.5 km/h 38 % 0 mm
15:21 15.2 °C 1.3 °C 1018.8 hPa NW 9.7 km/h 19.3 km/h 39 % 0 mm
15:26 15.1 °C 3.6 °C 1019.2 hPa NW 8 km/h 19.3 km/h 46 % 0 mm
15:40 14.6 °C 2.7 °C 1019.5 hPa North 10.8 km/h 24.1 km/h 45 % 0 mm
15:46 14.3 °C 2.8 °C 1019.5 hPa WNW 11.3 km/h 24.1 km/h 46 % 0 mm
15:50 14.2 °C 1.8 °C 1019.9 hPa WNW 9.7 km/h 24.1 km/h 43 % 0 mm
15:55 14.1 °C 2.3 °C 1019.9 hPa NW 6.4 km/h 18.5 km/h 45 % 0 mm
16:00 14 °C 3.4 °C 1019.9 hPa WNW 4.3 km/h 18.5 km/h 49 % 0 mm
16:05 13.9 °C 3.3 °C 1019.9 hPa NW 4.8 km/h 16.7 km/h 49 % 0 mm
16:11 13.7 °C 3.4 °C 1020.2 hPa NNW 9.7 km/h 24.1 km/h 50 % 0 mm
16:21 13.4 °C 2.6 °C 1020.5 hPa NNW 8 km/h 14.5 km/h 48 % 0 mm
16:26 13.3 °C 2.5 °C 1020.5 hPa NW 9.7 km/h 19.3 km/h 48 % 0 mm
16:31 13.2 °C 2.4 °C 1020.5 hPa WNW 4.8 km/h 19.3 km/h 48 % 0 mm
16:36 13 °C 2.8 °C 1020.9 hPa WNW 9.7 km/h 20.9 km/h 50 % 0 mm
16:41 12.9 °C 2.8 °C 1020.9 hPa WNW 8 km/h 19.3 km/h 50 % 0 mm
16:45 12.8 °C 2.3 °C 1021.2 hPa WNW 9.7 km/h 19.3 km/h 49 % 0 mm
16:56 12.7 °C 2.2 °C 1021.2 hPa NW 8 km/h 19.3 km/h 49 % 0 mm
17:11 12.3 °C 3 °C 1021.6 hPa NW 4.3 km/h 11.1 km/h 53 % 0 mm
17:16 12.2 °C 2.9 °C 1021.6 hPa WNW 5.6 km/h 14.8 km/h 53 % 0 mm
17:26 12.1 °C 3.8 °C 1021.9 hPa WNW 5.6 km/h 9.3 km/h 57 % 0 mm
17:31 11.9 °C 3.9 °C 1022.2 hPa NNW 2.6 km/h 5.6 km/h 58 % 0 mm
17:46 11.5 °C 3 °C 1022.6 hPa North 9.3 km/h 18.5 km/h 56 % 0 mm
17:51 11.4 °C 2.7 °C 1022.6 hPa NNE 15.3 km/h 19.3 km/h 55 % 0 mm
18:11 11.1 °C 1.9 °C 1023.2 hPa NNW 10 km/h 19.3 km/h 53 % 0 mm
18:16 11 °C 2.1 °C 1023.2 hPa NNE 10.1 km/h 16.7 km/h 54 % 0 mm
18:22 10.9 °C 1.7 °C 1023.2 hPa North 9.3 km/h 18.5 km/h 53 % 0 mm
18:37 10.7 °C 1.5 °C 1023.6 hPa NNW 11.7 km/h 20.9 km/h 53 % 0 mm
18:52 10.4 °C 1 °C 1023.9 hPa NNW 8 km/h 13 km/h 52 % 0 mm
19:02 10.3 °C 1.4 °C 1023.9 hPa NNW 5.1 km/h 16.7 km/h 54 % 0 mm
19:05 10.2 °C 1.5 °C 1024.3 hPa NNW 11.1 km/h 18.5 km/h 55 % 0 mm
19:10 10 °C 1.1 °C 1024.3 hPa NNW 4.7 km/h 13 km/h 54 % 0 mm
19:12 10 °C 1.4 °C 1024.3 hPa NW 9.5 km/h 19.3 km/h 55 % 0 mm
19:22 9.8 °C 0.7 °C 1024.9 hPa NNW 6.1 km/h 7.4 km/h 53 % 0 mm
19:27 9.7 °C 0.8 °C 1024.9 hPa North 11.1 km/h 16.1 km/h 54 % 0 mm
19:37 9.4 °C 0.6 °C 1024.9 hPa North 14.3 km/h 22.2 km/h 54 % 0 mm
19:42 9.3 °C 0.5 °C 1024.9 hPa NNW 8.4 km/h 18.5 km/h 54 % 0 mm
19:53 9.2 °C 1.1 °C 1025.3 hPa NNE 8.2 km/h 18.5 km/h 57 % 0 mm
20:08 8.9 °C 0.8 °C 1025.3 hPa North 11.9 km/h 24.1 km/h 57 % 0 mm
20:13 8.8 °C 0.7 °C 1025.3 hPa NNE 11.7 km/h 16.7 km/h 57 % 0 mm
20:18 8.7 °C 0.7 °C 1025.6 hPa North 7.2 km/h 16.7 km/h 57 % 0 mm
20:23 8.7 °C 0.8 °C 1025.6 hPa NNE 11.3 km/h 22.2 km/h 58 % 0 mm
20:25 8.6 °C 1.1 °C 1025.6 hPa North 12.1 km/h 18.5 km/h 59 % 0 mm
20:30 8.5 °C 0.9 °C 1025.6 hPa NE 12.9 km/h 16.1 km/h 59 % 0 mm
20:35 8.4 °C 0.6 °C 1025.6 hPa North 11.9 km/h 18.5 km/h 58 % 0 mm
20:45 8.2 °C 0.4 °C 1026 hPa NNW 12.6 km/h 22.2 km/h 58 % 0 mm
20:50 8.2 °C 0.4 °C 1025.6 hPa NNE 9 km/h 16.7 km/h 58 % 0 mm
21:01 8 °C 0 °C 1026 hPa NNW 11.1 km/h 11.3 km/h 57 % 0 mm
21:10 7.8 °C 0.1 °C 1026 hPa North 14.5 km/h 29 km/h 58 % 0 mm
21:15 7.7 °C -0.5 °C 1026 hPa NE 15.8 km/h 24.1 km/h 56 % 0 mm
21:30 7.6 °C -0.4 °C 1026 hPa North 11.1 km/h 18.5 km/h 57 % 0 mm
21:35 7.5 °C -0.2 °C 1026 hPa NE 11.1 km/h 17.7 km/h 58 % 0 mm
21:40 7.4 °C -0.1 °C 1026 hPa NNE 11.1 km/h 18.5 km/h 59 % 0 mm
21:45 7.3 °C -0.4 °C 1026.3 hPa NNE 9.7 km/h 16.7 km/h 58 % 0 mm
21:50 7.3 °C -0.4 °C 1026.3 hPa North 13 km/h 18.5 km/h 58 % 0 mm
21:55 7.2 °C -0.5 °C 1026.3 hPa NNE 11.7 km/h 20.9 km/h 58 % 0 mm
22:00 7.2 °C -0.8 °C 1026.3 hPa NNE 10.6 km/h 18.5 km/h 57 % 0 mm
22:05 7.1 °C -0.7 °C 1026.3 hPa NNE 6 km/h 13 km/h 58 % 0 mm
22:10 7 °C -0.5 °C 1026.3 hPa North 9.8 km/h 13 km/h 59 % 0 mm
22:15 6.9 °C -0.5 °C 1026.3 hPa North 10.1 km/h 18.5 km/h 59 % 0 mm
22:21 6.9 °C -0.8 °C 1026.3 hPa NNE 9.7 km/h 16.1 km/h 58 % 0 mm
22:31 6.8 °C -0.7 °C 1026.3 hPa North 9.7 km/h 16.1 km/h 59 % 0 mm
22:41 6.7 °C -0.8 °C 1026.3 hPa North 11.1 km/h 14.5 km/h 59 % 0 mm
22:46 6.6 °C -0.7 °C 1026.3 hPa NE 8.4 km/h 14.8 km/h 60 % 0 mm
22:51 6.5 °C -0.7 °C 1026.3 hPa North 11.7 km/h 16.1 km/h 60 % 0 mm
23:01 6.4 °C -0.8 °C 1026.3 hPa North 11.1 km/h 16.7 km/h 60 % 0 mm
23:06 6.4 °C -0.8 °C 1026.3 hPa North 6.3 km/h 16.7 km/h 60 % 0 mm
23:11 6.3 °C -0.9 °C 1026.3 hPa NNE 9.7 km/h 14.8 km/h 60 % 0 mm
23:17 6.3 °C -0.9 °C 1026.6 hPa NE 8.4 km/h 14.8 km/h 60 % 0 mm
23:22 6.2 °C -0.8 °C 1026.6 hPa NNE 8.9 km/h 13 km/h 61 % 0 mm
23:27 6.2 °C -0.8 °C 1026.3 hPa NNE 7.2 km/h 11.1 km/h 61 % 0 mm
23:37 6.1 °C -0.8 °C 1026.6 hPa North 5.5 km/h 9.3 km/h 61 % 0 mm
23:42 6.1 °C -0.9 °C 1026.6 hPa North 10.6 km/h 16.7 km/h 61 % 0 mm
23:47 6 °C -0.9 °C 1026.6 hPa NNE 5 km/h 7.4 km/h 61 % 0 mm
23:57 5.9 °C -1 °C 1026.6 hPa North 2.6 km/h 5.6 km/h 61 % 0 mm
Crab Meadow Weather
Compliments of Weather Underground - 2.5 mb

Script developed by  Jim McMurry - jmcmurry@mwt.net Adapted for the template by  Wim van der Kuil - Leuven-Template.eu

Extremes: The most widespread U.S. cold wave was in February of 1899. It was so cold that the Mississippi River froze over its entire length, with ice as thick as two inches even in New Orleans.